createdAt,value
2018-02-13T00:00:59.894Z,7.05
2018-02-13T00:04:09.816Z,8.25
2018-02-13T00:07:19.777Z,7.70
2018-02-13T00:10:29.883Z,9.10
2018-02-13T00:13:39.718Z,7.95
2018-02-13T00:16:50.354Z,9.35
2018-02-13T00:20:00.572Z,6.87
2018-02-13T00:23:10.544Z,7.53
2018-02-13T00:26:20.799Z,9.07
2018-02-13T00:29:31.267Z,7.90
2018-02-13T00:32:41.693Z,7.40
2018-02-13T00:35:52.513Z,6.65
2018-02-13T00:39:03.181Z,10.00
2018-02-13T00:42:13.650Z,10.48
2018-02-13T00:45:23.714Z,7.57
2018-02-13T00:48:33.685Z,8.73
2018-02-13T00:51:43.508Z,8.20
2018-02-13T00:54:54.049Z,10.60
2018-02-13T00:58:04.394Z,6.85
2018-02-13T01:01:14.398Z,6.45
2018-02-13T01:04:24.137Z,11.05
2018-02-13T01:07:34.727Z,8.00
2018-02-13T01:10:45.206Z,9.60
2018-02-13T01:13:56.128Z,10.48
2018-02-13T01:17:05.795Z,8.85
2018-02-13T01:20:15.930Z,9.30
2018-02-13T01:23:25.914Z,8.35
2018-02-13T01:26:36.238Z,7.10
2018-02-13T01:29:46.425Z,9.48
2018-02-13T01:32:56.813Z,9.90
2018-02-13T01:36:07.326Z,9.85
2018-02-13T01:39:17.805Z,10.00
2018-02-13T01:42:27.994Z,10.40
2018-02-13T01:45:38.253Z,10.63
2018-02-13T01:48:49.053Z,8.52
2018-02-13T01:51:58.848Z,10.32
2018-02-13T01:55:08.714Z,12.82
2018-02-13T01:58:19.751Z,9.80
2018-02-13T02:01:30.059Z,5.40
2018-02-13T02:04:40.226Z,10.52
2018-02-13T02:07:50.645Z,7.95
2018-02-13T02:11:02.181Z,9.30
2018-02-13T02:14:12.185Z,10.73
2018-02-13T02:17:23.506Z,7.37
2018-02-13T02:20:33.986Z,7.47
2018-02-13T02:23:43.988Z,10.05
2018-02-13T02:26:54.010Z,9.73
2018-02-13T02:30:04.282Z,8.38
2018-02-13T02:33:15.634Z,10.27
2018-02-13T02:36:25.299Z,4.37
2018-02-13T02:39:35.304Z,10.98
2018-02-13T02:46:21.401Z,14.85
2018-02-13T02:49:31.773Z,8.70
2018-02-13T02:52:41.659Z,10.30
2018-02-13T02:55:51.553Z,9.38
2018-02-13T02:59:01.370Z,11.75
2018-02-13T03:02:11.521Z,10.73
2018-02-13T03:05:21.486Z,11.05
2018-02-13T03:08:32.387Z,13.38
2018-02-13T03:11:43.290Z,12.10
2018-02-13T03:14:53.321Z,9.73
2018-02-13T03:18:03.989Z,11.25
2018-02-13T03:21:14.015Z,9.32
2018-02-13T03:24:23.885Z,11.57
2018-02-13T03:27:33.820Z,9.57
2018-02-13T03:30:43.788Z,11.57
2018-02-13T03:33:54.104Z,8.52
2018-02-13T03:37:03.488Z,11.38
2018-02-13T03:43:49.828Z,11.18
2018-02-13T03:47:00.669Z,8.60
2018-02-13T03:50:10.931Z,10.13
2018-02-13T03:53:20.933Z,8.68
2018-02-13T03:56:30.766Z,11.05
2018-02-13T03:59:40.746Z,12.75
2018-02-13T04:02:50.766Z,7.12
2018-02-13T04:06:00.637Z,10.07
2018-02-13T04:09:10.652Z,8.77
2018-02-13T04:12:21.307Z,12.68
2018-02-13T04:15:31.034Z,13.02
2018-02-13T04:18:41.331Z,11.10
2018-02-13T04:21:51.761Z,8.77
2018-02-13T04:25:02.582Z,11.93
2018-02-13T04:28:12.643Z,9.77
2018-02-13T04:31:22.324Z,8.80
2018-02-13T04:34:32.330Z,10.05
2018-02-13T04:37:43.041Z,11.57
2018-02-13T04:40:53.246Z,19.05
2018-02-13T04:44:03.051Z,14.25
2018-02-13T04:47:13.406Z,10.52
2018-02-13T04:50:23.362Z,10.25
2018-02-13T04:53:33.259Z,11.23
2018-02-13T04:56:43.182Z,11.80
2018-02-13T04:59:53.017Z,10.25
2018-02-13T05:03:03.651Z,10.40
2018-02-13T05:06:13.717Z,11.60
2018-02-13T05:09:23.434Z,11.27
2018-02-13T05:12:33.289Z,13.77
2018-02-13T05:15:43.143Z,11.88
2018-02-13T05:18:53.027Z,12.15
2018-02-13T05:22:03.035Z,11.00
2018-02-13T05:25:12.934Z,9.65
2018-02-13T05:28:23.418Z,11.23
2018-02-13T05:31:33.907Z,11.07
2018-02-13T05:34:43.738Z,9.32
2018-02-13T05:37:53.691Z,9.95
2018-02-13T05:41:04.385Z,11.65
2018-02-13T05:44:14.258Z,9.70
2018-02-13T05:47:24.287Z,11.85
2018-02-13T05:50:34.152Z,10.30
2018-02-13T05:53:44.753Z,10.70
2018-02-13T05:56:54.697Z,13.45
2018-02-13T06:00:04.722Z,13.02
2018-02-13T06:03:16.533Z,12.80
2018-02-13T06:06:27.042Z,10.45
2018-02-13T06:09:36.913Z,11.40
2018-02-13T06:12:47.584Z,9.48
2018-02-13T06:15:57.554Z,9.93
2018-02-13T06:19:07.465Z,10.27
2018-02-13T06:22:17.304Z,9.55
2018-02-13T06:25:27.036Z,10.90
2018-02-13T06:28:37.220Z,10.50
2018-02-13T06:31:47.165Z,11.77
2018-02-13T06:34:57.260Z,47.25
2018-02-13T06:38:07.131Z,47.97
2018-02-13T06:41:17.198Z,17.30
2018-02-13T06:44:27.068Z,12.05
2018-02-13T06:47:38.578Z,10.65
2018-02-13T06:50:49.554Z,11.98
2018-02-13T06:54:00.195Z,9.23
2018-02-13T06:57:10.060Z,9.38
2018-02-13T07:00:20.033Z,11.45
2018-02-13T07:03:30.246Z,10.63
2018-02-13T07:06:40.232Z,8.38
2018-02-13T07:09:50.119Z,9.07
2018-02-13T07:13:00.111Z,12.48
2018-02-13T07:16:09.974Z,11.25
2018-02-13T07:19:20.034Z,10.02
2018-02-13T07:22:30.326Z,11.75
2018-02-13T07:25:40.300Z,11.80
2018-02-13T07:28:50.178Z,11.25
2018-02-13T07:32:00.271Z,10.38
2018-02-13T07:35:10.661Z,11.98
2018-02-13T07:38:20.524Z,11.77
2018-02-13T07:41:31.132Z,11.63
2018-02-13T07:44:42.599Z,8.55
2018-02-13T07:47:52.744Z,12.07
2018-02-13T07:51:03.645Z,10.30
2018-02-13T07:54:14.555Z,9.35
2018-02-13T07:57:24.925Z,11.60
2018-02-13T08:00:35.297Z,9.65
2018-02-13T08:03:46.113Z,9.52
2018-02-13T08:06:56.975Z,9.85
2018-02-13T08:10:06.870Z,10.15
2018-02-13T08:13:17.662Z,14.38
2018-02-13T08:16:29.658Z,11.10
2018-02-13T08:19:41.130Z,11.85
2018-02-13T08:22:52.522Z,9.20
2018-02-13T08:26:02.748Z,9.30
2018-02-13T08:29:12.690Z,12.48
2018-02-13T08:32:22.677Z,8.10
2018-02-13T08:35:32.675Z,10.75
2018-02-13T08:38:42.930Z,9.93
2018-02-13T08:41:53.765Z,11.30
2018-02-13T08:45:03.966Z,10.73
2018-02-13T08:48:14.837Z,12.43
2018-02-13T08:51:25.326Z,10.85
2018-02-13T08:54:35.244Z,10.95
2018-02-13T08:57:45.161Z,11.43
2018-02-13T09:00:54.943Z,11.50
2018-02-13T09:04:06.430Z,12.63
2018-02-13T09:07:17.127Z,11.88
2018-02-13T09:10:27.555Z,10.85
2018-02-13T09:13:37.732Z,12.70
2018-02-13T09:16:49.125Z,11.30
2018-02-13T09:20:00.360Z,11.98
2018-02-13T09:23:10.971Z,11.93
2018-02-13T09:26:21.299Z,10.13
2018-02-13T09:29:31.917Z,12.82
2018-02-13T09:32:42.843Z,12.77
2018-02-13T09:35:53.777Z,10.27
2018-02-13T09:39:04.206Z,11.57
2018-02-13T09:42:14.995Z,8.50
2018-02-13T09:45:25.000Z,10.30
2018-02-13T09:48:36.118Z,11.25
2018-02-13T09:51:47.049Z,9.82
2018-02-13T09:54:59.131Z,14.57
2018-02-13T09:58:10.071Z,14.13
2018-02-13T10:01:19.807Z,13.13
2018-02-13T10:04:29.661Z,13.35
2018-02-13T10:07:39.784Z,8.90
2018-02-13T10:10:50.817Z,12.52
2018-02-13T10:14:01.073Z,10.30
2018-02-13T10:17:11.888Z,10.40
2018-02-13T10:20:22.725Z,13.45
2018-02-13T10:23:32.631Z,10.98
2018-02-13T10:26:42.520Z,12.75
2018-02-13T10:29:52.702Z,9.88
2018-02-13T10:33:02.571Z,9.23
2018-02-13T10:36:13.260Z,12.40
2018-02-13T10:39:23.614Z,12.23
2018-02-13T10:42:34.462Z,13.48
2018-02-13T10:45:44.835Z,10.60
2018-02-13T10:48:54.702Z,10.57
2018-02-13T10:52:04.891Z,10.45
2018-02-13T10:55:16.534Z,8.68
2018-02-13T10:58:26.923Z,12.23
2018-02-13T11:01:39.301Z,9.73
2018-02-13T11:04:49.683Z,11.55
2018-02-13T11:07:59.910Z,9.80
2018-02-13T11:11:11.388Z,11.35
2018-02-13T11:14:21.487Z,8.80
2018-02-13T11:17:31.360Z,10.80
2018-02-13T11:20:41.649Z,10.93
2018-02-13T11:23:51.788Z,12.35
2018-02-13T11:27:02.571Z,11.50
2018-02-13T11:30:13.170Z,10.15
2018-02-13T11:33:23.502Z,10.10
2018-02-13T11:36:34.186Z,11.85
2018-02-13T11:39:45.109Z,11.30
2018-02-13T11:42:55.598Z,9.48
2018-02-13T11:46:05.640Z,9.68
2018-02-13T11:49:15.691Z,9.45
2018-02-13T11:52:25.700Z,9.70
2018-02-13T11:55:35.643Z,11.68
2018-02-13T11:58:45.798Z,10.88
2018-02-13T12:01:56.023Z,7.95
2018-02-13T12:05:07.502Z,7.50
2018-02-13T12:08:17.499Z,10.85
2018-02-13T12:11:27.332Z,7.40
2018-02-13T12:14:38.312Z,9.77
2018-02-13T12:17:48.632Z,9.70
2018-02-13T12:20:59.223Z,9.25
2018-02-13T12:24:09.995Z,9.02
2018-02-13T12:27:20.178Z,7.93
2018-02-13T12:30:30.352Z,10.00
2018-02-13T12:33:41.656Z,9.50
2018-02-13T12:36:52.048Z,10.23
2018-02-13T12:40:01.939Z,9.73
2018-02-13T12:43:11.815Z,9.25
2018-02-13T12:46:21.766Z,8.10
2018-02-13T12:49:32.506Z,8.48
2018-02-13T12:52:42.350Z,8.05
2018-02-13T12:55:51.925Z,9.43
2018-02-13T12:59:02.133Z,7.10
2018-02-13T13:02:12.132Z,8.07
2018-02-13T13:05:21.725Z,9.00
2018-02-13T13:08:31.830Z,7.87
2018-02-13T13:11:42.354Z,7.93
2018-02-13T13:14:52.288Z,8.27
2018-02-13T13:18:02.968Z,8.20
2018-02-13T13:21:13.670Z,7.65
2018-02-13T13:24:25.295Z,7.40
2018-02-13T13:27:35.929Z,9.15
2018-02-13T13:30:47.170Z,7.97
2018-02-13T13:33:57.022Z,9.50
2018-02-13T13:37:07.528Z,7.50
2018-02-13T13:40:17.478Z,8.57
2018-02-13T13:43:27.407Z,9.10
2018-02-13T13:46:37.260Z,8.40
2018-02-13T13:49:47.910Z,10.10
2018-02-13T13:52:57.693Z,10.10
2018-02-13T13:56:07.486Z,7.45
2018-02-13T13:59:18.126Z,7.65
2018-02-13T14:02:27.808Z,8.63
2018-02-13T14:05:37.916Z,8.68
2018-02-13T14:08:47.713Z,8.32
2018-02-13T14:11:57.693Z,9.00
2018-02-13T14:15:07.492Z,9.65
2018-02-13T14:18:17.479Z,7.43
2018-02-13T14:21:27.422Z,8.93
2018-02-13T14:24:37.732Z,9.85
2018-02-13T14:27:48.055Z,8.80
2018-02-13T14:30:58.655Z,9.07
2018-02-13T14:34:08.459Z,8.40
2018-02-13T14:37:18.254Z,8.98
2018-02-13T14:40:28.023Z,8.52
2018-02-13T14:43:38.026Z,6.93
2018-02-13T14:46:48.079Z,7.70
2018-02-13T14:49:58.254Z,11.38
2018-02-13T14:53:08.350Z,9.30
2018-02-13T14:56:18.714Z,9.65
2018-02-13T14:59:29.346Z,12.27
2018-02-13T15:02:39.314Z,10.93
2018-02-13T15:05:49.306Z,9.60
2018-02-13T15:09:00.094Z,7.78
2018-02-13T15:12:10.458Z,9.60
2018-02-13T15:18:57.424Z,7.95
2018-02-13T15:22:07.165Z,7.90
2018-02-13T15:25:16.843Z,15.45
2018-02-13T15:28:28.013Z,20.70
2018-02-13T15:31:38.142Z,10.85
2018-02-13T15:34:47.993Z,9.85
2018-02-13T15:37:57.985Z,10.55
2018-02-13T15:41:08.717Z,9.60
2018-02-13T15:44:20.118Z,8.80
2018-02-13T15:47:35.775Z,9.57
2018-02-13T15:50:45.705Z,11.77
2018-02-13T15:53:55.841Z,9.85
2018-02-13T15:57:06.518Z,10.75
2018-02-13T16:00:16.433Z,12.45
2018-02-13T16:03:26.584Z,10.73
2018-02-13T16:06:36.329Z,9.35
2018-02-13T16:09:46.390Z,8.93
2018-02-13T16:12:56.339Z,11.20
2018-02-13T16:16:06.614Z,9.50
2018-02-13T16:19:16.660Z,10.77
2018-02-13T16:22:26.514Z,11.02
2018-02-13T16:25:37.756Z,9.70
2018-02-13T16:28:48.124Z,9.20
2018-02-13T16:31:58.838Z,9.90
2018-02-13T16:35:09.634Z,9.18
2018-02-13T16:38:19.927Z,11.77
2018-02-13T16:41:30.066Z,11.10
2018-02-13T16:44:40.318Z,10.65
2018-02-13T16:47:50.383Z,9.68
2018-02-13T16:51:00.504Z,9.82
2018-02-13T16:54:10.376Z,9.75
2018-02-13T16:57:20.507Z,11.10
2018-02-13T17:00:30.308Z,10.95
2018-02-13T17:03:40.246Z,13.35
2018-02-13T17:06:50.334Z,12.80
2018-02-13T17:10:00.852Z,11.20
2018-02-13T17:13:11.907Z,11.85
2018-02-13T17:16:21.805Z,10.70
2018-02-13T17:19:31.893Z,10.60
2018-02-13T17:22:42.450Z,10.07
2018-02-13T17:25:52.919Z,11.02
2018-02-13T17:29:02.988Z,12.02
2018-02-13T17:32:12.951Z,9.98
2018-02-13T17:35:22.857Z,10.77
2018-02-13T17:38:32.747Z,9.15
2018-02-13T17:41:42.850Z,10.07
2018-02-13T17:44:53.704Z,12.18
2018-02-13T17:48:04.168Z,9.85
2018-02-13T17:51:15.328Z,10.57
2018-02-13T17:54:26.913Z,9.18
2018-02-13T17:57:37.153Z,10.65
2018-02-13T18:00:48.273Z,10.43
2018-02-13T18:07:34.453Z,9.30
2018-02-13T18:10:44.695Z,11.00
2018-02-13T18:13:55.804Z,11.95
2018-02-13T18:17:07.122Z,10.35
2018-02-13T18:20:18.111Z,12.37
2018-02-13T18:23:28.547Z,11.68
2018-02-13T18:26:38.428Z,11.38
2018-02-13T18:29:48.389Z,11.60
2018-02-13T18:32:59.908Z,9.65
2018-02-13T18:36:09.899Z,11.45
2018-02-13T18:39:19.911Z,11.43
2018-02-13T18:42:31.595Z,13.32
2018-02-13T18:45:41.658Z,11.32
2018-02-13T18:48:51.777Z,12.43
2018-02-13T18:52:02.534Z,13.43
2018-02-13T18:55:13.119Z,11.93
2018-02-13T18:58:23.151Z,11.52
2018-02-13T19:01:33.741Z,10.38
2018-02-13T19:04:44.124Z,16.10
2018-02-13T19:07:54.894Z,15.55
2018-02-13T19:11:05.134Z,14.95
2018-02-13T19:14:16.615Z,13.00
2018-02-13T19:17:27.279Z,15.07
2018-02-13T19:20:37.624Z,13.48
2018-02-13T19:23:47.940Z,15.57
2018-02-13T19:26:57.827Z,18.17
2018-02-13T19:30:08.220Z,18.08
2018-02-13T19:33:19.366Z,12.20
2018-02-13T19:36:30.042Z,12.73
2018-02-13T19:39:40.197Z,16.17
2018-02-13T19:42:50.502Z,14.48
2018-02-13T19:46:00.539Z,19.90
2018-02-13T19:49:10.251Z,13.75
2018-02-13T19:52:20.771Z,12.23
2018-02-13T19:55:31.135Z,13.07
2018-02-13T19:58:41.765Z,12.30
2018-02-13T20:01:52.769Z,14.52
2018-02-13T20:05:03.395Z,16.95
2018-02-13T20:08:14.095Z,13.10
2018-02-13T20:11:24.214Z,17.12
2018-02-13T20:14:35.446Z,13.27
2018-02-13T20:17:46.647Z,14.13
2018-02-13T20:20:57.036Z,16.12
2018-02-13T20:24:07.169Z,13.90
2018-02-13T20:27:17.227Z,14.90
2018-02-13T20:30:27.465Z,14.52
2018-02-13T20:33:37.352Z,14.25
2018-02-13T20:36:48.113Z,12.90
2018-02-13T20:39:59.026Z,15.60
2018-02-13T20:43:09.741Z,15.80
2018-02-13T20:46:20.646Z,12.75
2018-02-13T20:49:31.871Z,15.02
2018-02-13T20:52:42.724Z,13.45
2018-02-13T20:55:53.159Z,16.40
2018-02-13T20:59:03.484Z,13.98
2018-02-13T21:02:13.479Z,15.57
2018-02-13T21:05:24.269Z,15.85
2018-02-13T21:08:34.562Z,14.18
2018-02-13T21:11:44.870Z,13.45
2018-02-13T21:14:55.555Z,12.25
2018-02-13T21:18:06.548Z,13.40
2018-02-13T21:21:16.970Z,11.70
2018-02-13T21:24:28.124Z,14.75
2018-02-13T21:27:38.335Z,13.25
2018-02-13T21:30:48.086Z,13.80
2018-02-13T21:33:58.372Z,13.80
2018-02-13T21:37:09.336Z,13.77
2018-02-13T21:40:20.446Z,15.88
2018-02-13T21:43:30.286Z,17.58
2018-02-13T21:46:41.280Z,21.95
2018-02-13T21:49:52.425Z,15.52
2018-02-13T21:53:02.877Z,15.57
2018-02-13T21:56:13.068Z,15.25
2018-02-13T21:59:23.009Z,14.80
2018-02-13T22:02:38.906Z,13.77
2018-02-13T22:05:49.918Z,12.48
2018-02-13T22:08:59.773Z,13.50
2018-02-13T22:15:45.494Z,12.57
2018-02-13T22:18:56.321Z,11.88
2018-02-13T22:22:06.783Z,14.00
2018-02-13T22:25:17.286Z,13.80
2018-02-13T22:28:27.891Z,17.27
2018-02-13T22:31:37.931Z,10.55
2018-02-13T22:34:47.946Z,14.57
2018-02-13T22:37:58.545Z,11.57
2018-02-13T22:41:08.268Z,11.95
2018-02-13T22:44:18.124Z,10.77
2018-02-13T22:47:28.940Z,11.68
2018-02-13T22:50:39.884Z,13.30
2018-02-13T22:53:50.893Z,12.70
2018-02-13T22:57:00.967Z,15.77
2018-02-13T23:00:10.191Z,15.82
2018-02-13T23:03:21.006Z,11.80
2018-02-13T23:06:31.135Z,14.52
2018-02-13T23:09:41.240Z,14.30
2018-02-13T23:12:51.073Z,13.18
2018-02-13T23:16:01.396Z,13.70
2018-02-13T23:19:11.811Z,15.20
2018-02-13T23:22:22.396Z,13.85
2018-02-13T23:25:33.227Z,10.63
2018-02-13T23:28:44.241Z,12.00
2018-02-13T23:31:54.124Z,12.63
2018-02-13T23:35:03.943Z,10.18
2018-02-13T23:38:14.121Z,12.25
2018-02-13T23:41:24.810Z,10.75
2018-02-13T23:44:35.100Z,11.38
2018-02-13T23:47:45.093Z,12.45
2018-02-13T23:50:55.900Z,13.40
2018-02-13T23:54:06.286Z,12.13
2018-02-13T23:57:16.319Z,10.90
